sensor_id;sensor_type;location;lat;lon;timestamp;pressure;altitude;pressure_sealevel;temperature;humidity
71107;BME280;58763;47.982;11.516;2022-08-19T00:00:24;93760.53;;;17.99;82.79
71107;BME280;58763;47.982;11.516;2022-08-19T00:02:49;93755.63;;;18.16;82.07
71107;BME280;58763;47.982;11.516;2022-08-19T00:05:15;93750.72;;;18.22;81.68
71107;BME280;58763;47.982;11.516;2022-08-19T00:07:42;93740.09;;;18.32;81.23
71107;BME280;58763;47.982;11.516;2022-08-19T00:10:09;93729.28;;;18.12;81.60
71107;BME280;58763;47.982;11.516;2022-08-19T00:12:35;93721.88;;;18.12;81.52
71107;BME280;58763;47.982;11.516;2022-08-19T00:15:05;93712.09;;;17.87;82.18
71107;BME280;58763;47.982;11.516;2022-08-19T00:17:31;93701.81;;;17.84;81.91
71107;BME280;58763;47.982;11.516;2022-08-19T00:19:56;93713.00;;;17.91;81.67
71107;BME280;58763;47.982;11.516;2022-08-19T00:22:22;93710.25;;;17.91;81.43
71107;BME280;58763;47.982;11.516;2022-08-19T00:24:47;93719.63;;;17.78;82.17
71107;BME280;58763;47.982;11.516;2022-08-19T00:27:13;93723.47;;;17.89;81.63
71107;BME280;58763;47.982;11.516;2022-08-19T00:29:38;93726.09;;;17.98;80.86
71107;BME280;58763;47.982;11.516;2022-08-19T00:32:05;93742.63;;;18.01;80.66
71107;BME280;58763;47.982;11.516;2022-08-19T00:34:31;93735.00;;;17.94;81.39
71107;BME280;58763;47.982;11.516;2022-08-19T00:36:57;93736.69;;;18.11;80.60
71107;BME280;58763;47.982;11.516;2022-08-19T00:39:23;93721.88;;;18.24;80.05
71107;BME280;58763;47.982;11.516;2022-08-19T00:41:50;93722.63;;;18.37;79.55
71107;BME280;58763;47.982;11.516;2022-08-19T00:44:23;93715.91;;;18.34;79.51
71107;BME280;58763;47.982;11.516;2022-08-19T00:46:51;93710.25;;;18.27;80.29
71107;BME280;58763;47.982;11.516;2022-08-19T00:49:43;93698.38;;;18.23;80.25
71107;BME280;58763;47.982;11.516;2022-08-19T00:52:17;93700.31;;;18.23;80.14
71107;BME280;58763;47.982;11.516;2022-08-19T00:54:44;93701.81;;;18.08;80.85
71107;BME280;58763;47.982;11.516;2022-08-19T00:57:16;93699.53;;;18.10;80.66
71107;BME280;58763;47.982;11.516;2022-08-19T00:59:45;93706.72;;;18.15;80.10
71107;BME280;58763;47.982;11.516;2022-08-19T01:02:11;93702.72;;;18.12;79.83
71107;BME280;58763;47.982;11.516;2022-08-19T01:04:37;93698.72;;;18.22;79.75
71107;BME280;58763;47.982;11.516;2022-08-19T01:07:03;93688.22;;;18.36;79.17
71107;BME280;58763;47.982;11.516;2022-08-19T01:09:29;93685.84;;;18.10;79.89
71107;BME280;58763;47.982;11.516;2022-08-19T01:11:55;93679.13;;;18.20;79.95
71107;BME280;58763;47.982;11.516;2022-08-19T01:14:21;93677.88;;;18.17;79.77
71107;BME280;58763;47.982;11.516;2022-08-19T01:16:47;93689.94;;;18.04;80.34
71107;BME280;58763;47.982;11.516;2022-08-19T01:22:16;93715.94;;;18.10;80.22
71107;BME280;58763;47.982;11.516;2022-08-19T01:24:45;93721.44;;;18.10;80.13
71107;BME280;58763;47.982;11.516;2022-08-19T01:27:10;93736.94;;;18.06;80.56
71107;BME280;58763;47.982;11.516;2022-08-19T01:29:39;93732.03;;;18.12;79.96
71107;BME280;58763;47.982;11.516;2022-08-19T01:32:07;93747.41;;;18.04;80.47
71107;BME280;58763;47.982;11.516;2022-08-19T01:34:32;93745.38;;;18.13;79.75
71107;BME280;58763;47.982;11.516;2022-08-19T01:37:00;93736.47;;;18.04;79.49
71107;BME280;58763;47.982;11.516;2022-08-19T01:39:27;93732.81;;;18.24;79.20
71107;BME280;58763;47.982;11.516;2022-08-19T01:41:53;93736.00;;;18.26;78.81
71107;BME280;58763;47.982;11.516;2022-08-19T01:44:21;93743.78;;;18.12;79.32
71107;BME280;58763;47.982;11.516;2022-08-19T01:46:50;93750.59;;;18.18;78.89
71107;BME280;58763;47.982;11.516;2022-08-19T01:49:21;93756.28;;;18.25;78.35
71107;BME280;58763;47.982;11.516;2022-08-19T01:51:47;93762.03;;;18.08;79.34
71107;BME280;58763;47.982;11.516;2022-08-19T01:54:14;93749.69;;;18.02;79.91
71107;BME280;58763;47.982;11.516;2022-08-19T01:56:40;93749.91;;;18.09;79.46
71107;BME280;58763;47.982;11.516;2022-08-19T01:59:10;93749.47;;;18.07;79.65
71107;BME280;58763;47.982;11.516;2022-08-19T02:01:37;93748.09;;;17.89;80.07
71107;BME280;58763;47.982;11.516;2022-08-19T02:04:03;93742.06;;;17.95;79.65
71107;BME280;58763;47.982;11.516;2022-08-19T02:06:29;93747.31;;;18.01;79.46
71107;BME280;58763;47.982;11.516;2022-08-19T02:08:55;93750.84;;;18.01;79.47
71107;BME280;58763;47.982;11.516;2022-08-19T02:11:24;93751.28;;;18.03;79.17
71107;BME280;58763;47.982;11.516;2022-08-19T02:13:53;93762.00;;;17.96;79.28
71107;BME280;58763;47.982;11.516;2022-08-19T02:16:19;93755.88;;;17.99;78.76
71107;BME280;58763;47.982;11.516;2022-08-19T02:18:46;93753.59;;;18.01;78.79
71107;BME280;58763;47.982;11.516;2022-08-19T02:21:15;93755.88;;;17.99;78.61
71107;BME280;58763;47.982;11.516;2022-08-19T02:23:41;93765.78;;;18.04;78.95
71107;BME280;58763;47.982;11.516;2022-08-19T02:26:07;93765.44;;;18.05;78.77
71107;BME280;58763;47.982;11.516;2022-08-19T02:28:33;93761.66;;;18.10;78.36
71107;BME280;58763;47.982;11.516;2022-08-19T02:30:59;93759.06;;;18.01;78.83
71107;BME280;58763;47.982;11.516;2022-08-19T02:33:26;93753.81;;;17.96;78.96
71107;BME280;58763;47.982;11.516;2022-08-19T02:35:51;93718.91;;;18.05;78.42
71107;BME280;58763;47.982;11.516;2022-08-19T02:38:17;93698.63;;;18.06;78.44
71107;BME280;58763;47.982;11.516;2022-08-19T02:40:57;93694.75;;;17.83;79.67
71107;BME280;58763;47.982;11.516;2022-08-19T02:43:23;93698.19;;;17.80;79.78
71107;BME280;58763;47.982;11.516;2022-08-19T02:45:50;93698.19;;;17.80;79.52
71107;BME280;58763;47.982;11.516;2022-08-19T02:48:18;93694.88;;;17.86;79.27
71107;BME280;58763;47.982;11.516;2022-08-19T02:50:45;93687.13;;;18.01;78.79
71107;BME280;58763;47.982;11.516;2022-08-19T02:53:11;93689.94;;;18.16;77.95
71107;BME280;58763;47.982;11.516;2022-08-19T02:55:42;93681.72;;;18.16;77.74
71107;BME280;58763;47.982;11.516;2022-08-19T02:58:08;93691.09;;;18.03;78.62
71107;BME280;58763;47.982;11.516;2022-08-19T03:00:34;93686.66;;;17.99;78.33
71107;BME280;58763;47.982;11.516;2022-08-19T03:02:59;93686.31;;;18.00;78.43
71107;BME280;58763;47.982;11.516;2022-08-19T03:05:25;93682.69;;;17.96;78.67
71107;BME280;58763;47.982;11.516;2022-08-19T03:07:52;93690.88;;;17.84;79.13
71107;BME280;58763;47.982;11.516;2022-08-19T03:10:18;93696.59;;;17.91;78.76
71107;BME280;58763;47.982;11.516;2022-08-19T03:12:43;93693.97;;;17.82;79.46
71107;BME280;58763;47.982;11.516;2022-08-19T03:15:10;93696.22;;;17.92;78.64
71107;BME280;58763;47.982;11.516;2022-08-19T03:17:35;93696.00;;;17.98;78.62
71107;BME280;58763;47.982;11.516;2022-08-19T03:20:01;93714.81;;;17.99;78.29
71107;BME280;58763;47.982;11.516;2022-08-19T03:22:27;93715.50;;;18.08;77.77
71107;BME280;58763;47.982;11.516;2022-08-19T03:24:52;93709.22;;;18.08;77.81
71107;BME280;58763;47.982;11.516;2022-08-19T03:27:18;93706.25;;;18.13;77.59
71107;BME280;58763;47.982;11.516;2022-08-19T03:29:44;93702.38;;;18.14;77.38
71107;BME280;58763;47.982;11.516;2022-08-19T03:32:10;93698.63;;;18.06;77.48
71107;BME280;58763;47.982;11.516;2022-08-19T03:34:37;93687.69;;;18.06;77.78
71107;BME280;58763;47.982;11.516;2022-08-19T03:37:08;93691.47;;;18.02;77.89
71107;BME280;58763;47.982;11.516;2022-08-19T03:39:36;93698.50;;;18.03;77.85
71107;BME280;58763;47.982;11.516;2022-08-19T03:42:02;93705.47;;;18.12;77.49
71107;BME280;58763;47.982;11.516;2022-08-19T03:44:28;93705.91;;;18.02;77.76
71107;BME280;58763;47.982;11.516;2022-08-19T03:46:56;93716.84;;;18.02;78.28
71107;BME280;58763;47.982;11.516;2022-08-19T03:49:24;93708.44;;;17.95;78.60
71107;BME280;58763;47.982;11.516;2022-08-19T03:51:50;93700.13;;;18.04;78.34
71107;BME280;58763;47.982;11.516;2022-08-19T03:54:20;93693.16;;;18.06;78.37
71107;BME280;58763;47.982;11.516;2022-08-19T03:56:47;93692.69;;;18.16;77.87
71107;BME280;58763;47.982;11.516;2022-08-19T03:59:18;93702.50;;;18.17;77.61
71107;BME280;58763;47.982;11.516;2022-08-19T04:01:44;93701.56;;;18.25;77.49
71107;BME280;58763;47.982;11.516;2022-08-19T04:04:11;93695.63;;;18.35;77.00
71107;BME280;58763;47.982;11.516;2022-08-19T04:06:37;93695.81;;;18.42;76.72
71107;BME280;58763;47.982;11.516;2022-08-19T04:09:06;93690.13;;;18.59;75.84
71107;BME280;58763;47.982;11.516;2022-08-19T04:11:38;93702.19;;;18.58;75.56
71107;BME280;58763;47.982;11.516;2022-08-19T04:14:08;93706.44;;;18.56;76.02
71107;BME280;58763;47.982;11.516;2022-08-19T04:16:33;93717.94;;;18.61;75.43
71107;BME280;58763;47.982;11.516;2022-08-19T04:19:00;93715.44;;;18.56;75.62
71107;BME280;58763;47.982;11.516;2022-08-19T04:21:27;93720.56;;;18.58;75.54
71107;BME280;58763;47.982;11.516;2022-08-19T04:23:54;93710.88;;;18.60;75.19
71107;BME280;58763;47.982;11.516;2022-08-19T04:26:29;93714.31;;;18.57;75.30
71107;BME280;58763;47.982;11.516;2022-08-19T04:28:58;93717.50;;;18.59;75.51
71107;BME280;58763;47.982;11.516;2022-08-19T04:31:26;93731.56;;;18.46;76.26
71107;BME280;58763;47.982;11.516;2022-08-19T04:33:53;93739.63;;;18.42;76.37
71107;BME280;58763;47.982;11.516;2022-08-19T04:36:23;93742.94;;;18.36;76.55
71107;BME280;58763;47.982;11.516;2022-08-19T04:38:52;93747.84;;;18.30;76.79
71107;BME280;58763;47.982;11.516;2022-08-19T04:41:18;93751.50;;;18.34;76.24
71107;BME280;58763;47.982;11.516;2022-08-19T04:44:02;93748.66;;;18.31;76.42
71107;BME280;58763;47.982;11.516;2022-08-19T04:46:28;93754.25;;;18.22;76.58
71107;BME280;58763;47.982;11.516;2022-08-19T04:48:55;93758.34;;;18.16;77.04
71107;BME280;58763;47.982;11.516;2022-08-19T04:51:22;93760.41;;;18.07;77.16
71107;BME280;58763;47.982;11.516;2022-08-19T04:53:48;93769.19;;;18.13;77.30
71107;BME280;58763;47.982;11.516;2022-08-19T04:56:16;93767.38;;;18.17;77.14
71107;BME280;58763;47.982;11.516;2022-08-19T04:58:43;93767.94;;;18.22;76.79
71107;BME280;58763;47.982;11.516;2022-08-19T05:01:17;93764.75;;;18.20;77.04
71107;BME280;58763;47.982;11.516;2022-08-19T05:03:43;93768.63;;;18.19;76.92
71107;BME280;58763;47.982;11.516;2022-08-19T05:06:12;93776.38;;;18.17;77.08
71107;BME280;58763;47.982;11.516;2022-08-19T05:08:40;93770.78;;;18.14;77.21
71107;BME280;58763;47.982;11.516;2022-08-19T05:11:11;93783.47;;;18.06;77.66
71107;BME280;58763;47.982;11.516;2022-08-19T05:13:37;93772.03;;;18.04;77.37
71107;BME280;58763;47.982;11.516;2022-08-19T05:16:03;93778.31;;;18.05;77.60
71107;BME280;58763;47.982;11.516;2022-08-19T05:18:29;93771.13;;;18.00;77.87
71107;BME280;58763;47.982;11.516;2022-08-19T05:21:15;93768.59;;;17.95;78.12
71107;BME280;58763;47.982;11.516;2022-08-19T05:23:59;93756.75;;;17.91;78.09
71107;BME280;58763;47.982;11.516;2022-08-19T05:26:25;93758.47;;;17.95;78.19
71107;BME280;58763;47.982;11.516;2022-08-19T05:28:52;93752.88;;;18.04;77.95
71107;BME280;58763;47.982;11.516;2022-08-19T05:31:18;93745.94;;;18.19;77.06
71107;BME280;58763;47.982;11.516;2022-08-19T05:33:43;93735.09;;;18.22;76.74
71107;BME280;58763;47.982;11.516;2022-08-19T05:36:09;93741.84;;;18.25;76.62
71107;BME280;58763;47.982;11.516;2022-08-19T05:38:35;93736.09;;;18.30;76.47
71107;BME280;58763;47.982;11.516;2022-08-19T05:41:10;93746.94;;;18.38;75.94
71107;BME280;58763;47.982;11.516;2022-08-19T05:43:36;93744.53;;;18.49;75.64
71107;BME280;58763;47.982;11.516;2022-08-19T05:46:03;93740.09;;;18.56;75.58
71107;BME280;58763;47.982;11.516;2022-08-19T05:48:34;93734.03;;;18.63;75.64
71107;BME280;58763;47.982;11.516;2022-08-19T05:51:05;93734.69;;;18.72;75.36
71107;BME280;58763;47.982;11.516;2022-08-19T05:53:34;93737.97;;;18.78;75.45
71107;BME280;58763;47.982;11.516;2022-08-19T05:56:07;93750.06;;;18.77;75.42
71107;BME280;58763;47.982;11.516;2022-08-19T05:58:34;93751.56;;;18.74;75.51
71107;BME280;58763;47.982;11.516;2022-08-19T06:01:00;93748.94;;;18.78;75.27
71107;BME280;58763;47.982;11.516;2022-08-19T06:03:33;93748.81;;;18.74;75.32
71107;BME280;58763;47.982;11.516;2022-08-19T06:05:59;93748.25;;;18.81;74.24
71107;BME280;58763;47.982;11.516;2022-08-19T06:08:28;93753.22;;;18.91;74.54
71107;BME280;58763;47.982;11.516;2022-08-19T06:10:54;93757.94;;;18.90;74.76
71107;BME280;58763;47.982;11.516;2022-08-19T06:13:21;93765.22;;;18.86;74.80
71107;BME280;58763;47.982;11.516;2022-08-19T06:15:48;93773.81;;;18.85;74.89
71107;BME280;58763;47.982;11.516;2022-08-19T06:18:14;93774.50;;;18.82;75.13
71107;BME280;58763;47.982;11.516;2022-08-19T06:20:41;93777.59;;;18.80;75.48
71107;BME280;58763;47.982;11.516;2022-08-19T06:23:06;93775.88;;;18.76;75.59
71107;BME280;58763;47.982;11.516;2022-08-19T06:25:32;93777.72;;;18.72;75.74
71107;BME280;58763;47.982;11.516;2022-08-19T06:27:58;93773.47;;;18.74;75.43
71107;BME280;58763;47.982;11.516;2022-08-19T06:30:23;93770.84;;;18.78;75.92
71107;BME280;58763;47.982;11.516;2022-08-19T06:32:49;93770.38;;;18.88;75.48
71107;BME280;58763;47.982;11.516;2022-08-19T06:35:14;93761.44;;;18.91;75.66
71107;BME280;58763;47.982;11.516;2022-08-19T06:37:40;93761.13;;;18.92;75.52
71107;BME280;58763;47.982;11.516;2022-08-19T06:40:06;93753.66;;;18.93;76.10
71107;BME280;58763;47.982;11.516;2022-08-19T06:42:34;93754.22;;;18.98;75.94
71107;BME280;58763;47.982;11.516;2022-08-19T06:45:00;93760.91;;;18.85;76.47
71107;BME280;58763;47.982;11.516;2022-08-19T06:47:28;93754.47;;;18.93;76.34
71107;BME280;58763;47.982;11.516;2022-08-19T06:49:55;93754.22;;;18.98;76.63
71107;BME280;58763;47.982;11.516;2022-08-19T06:52:25;93754.59;;;18.97;76.44
71107;BME280;58763;47.982;11.516;2022-08-19T06:54:51;93747.94;;;18.98;76.20
71107;BME280;58763;47.982;11.516;2022-08-19T06:57:16;93744.53;;;19.01;76.51
71107;BME280;58763;47.982;11.516;2022-08-19T06:59:42;93738.34;;;19.04;76.72
71107;BME280;58763;47.982;11.516;2022-08-19T07:02:07;93734.31;;;19.13;75.97
71107;BME280;58763;47.982;11.516;2022-08-19T07:04:34;93732.47;;;19.17;76.04
71107;BME280;58763;47.982;11.516;2022-08-19T07:07:06;93726.19;;;19.17;76.46
71107;BME280;58763;47.982;11.516;2022-08-19T07:09:34;93736.16;;;19.09;76.63
71107;BME280;58763;47.982;11.516;2022-08-19T07:12:03;93735.69;;;19.07;77.14
71107;BME280;58763;47.982;11.516;2022-08-19T07:14:29;93735.56;;;19.16;77.20
71107;BME280;58763;47.982;11.516;2022-08-19T07:16:56;93736.91;;;19.22;76.82
71107;BME280;58763;47.982;11.516;2022-08-19T07:19:25;93724.44;;;19.24;77.00
71107;BME280;58763;47.982;11.516;2022-08-19T07:21:52;93735.84;;;19.26;77.08
71107;BME280;58763;47.982;11.516;2022-08-19T07:24:20;93727.59;;;19.11;77.47
71107;BME280;58763;47.982;11.516;2022-08-19T07:26:46;93739.25;;;19.08;77.62
71107;BME280;58763;47.982;11.516;2022-08-19T07:29:12;93731.47;;;19.10;77.46
71107;BME280;58763;47.982;11.516;2022-08-19T07:31:38;93733.28;;;19.18;77.94
71107;BME280;58763;47.982;11.516;2022-08-19T07:34:05;93741.50;;;19.18;78.50
71107;BME280;58763;47.982;11.516;2022-08-19T07:36:37;93739.72;;;19.25;77.70
71107;BME280;58763;47.982;11.516;2022-08-19T07:39:16;93737.53;;;19.31;77.12
71107;BME280;58763;47.982;11.516;2022-08-19T07:41:42;93734.56;;;19.36;76.66
71107;BME280;58763;47.982;11.516;2022-08-19T07:44:08;93735.81;;;19.39;77.01
71107;BME280;58763;47.982;11.516;2022-08-19T07:46:37;93739.38;;;19.39;77.05
71107;BME280;58763;47.982;11.516;2022-08-19T07:49:04;93740.63;;;19.42;76.79
71107;BME280;58763;47.982;11.516;2022-08-19T07:51:30;93740.00;;;19.20;76.94
71107;BME280;58763;47.982;11.516;2022-08-19T07:53:56;93746.78;;;19.11;77.92
71107;BME280;58763;47.982;11.516;2022-08-19T07:56:21;93747.75;;;19.18;77.97
71107;BME280;58763;47.982;11.516;2022-08-19T07:58:48;93745.53;;;19.36;76.84
71107;BME280;58763;47.982;11.516;2022-08-19T08:01:19;93759.09;;;19.32;76.83
71107;BME280;58763;47.982;11.516;2022-08-19T08:03:45;93764.03;;;19.39;76.59
71107;BME280;58763;47.982;11.516;2022-08-19T08:06:29;93761.41;;;19.30;76.41
71107;BME280;58763;47.982;11.516;2022-08-19T08:09:15;93760.50;;;19.39;76.44
71107;BME280;58763;47.982;11.516;2022-08-19T08:12:10;93760.97;;;19.28;76.88
71107;BME280;58763;47.982;11.516;2022-08-19T08:14:47;93765.72;;;19.16;77.38
71107;BME280;58763;47.982;11.516;2022-08-19T08:17:15;93762.63;;;19.17;77.05
71107;BME280;58763;47.982;11.516;2022-08-19T08:19:42;93769.16;;;19.13;77.45
71107;BME280;58763;47.982;11.516;2022-08-19T08:22:08;93774.50;;;19.09;77.50
71107;BME280;58763;47.982;11.516;2022-08-19T08:24:54;93773.47;;;19.14;77.41
71107;BME280;58763;47.982;11.516;2022-08-19T08:27:19;93774.88;;;19.08;77.92
71107;BME280;58763;47.982;11.516;2022-08-19T08:29:45;93781.88;;;18.93;78.28
71107;BME280;58763;47.982;11.516;2022-08-19T08:32:10;93768.06;;;19.02;78.08
71107;BME280;58763;47.982;11.516;2022-08-19T08:34:36;93769.03;;;19.09;77.98
71107;BME280;58763;47.982;11.516;2022-08-19T08:37:02;93781.69;;;19.14;77.36
71107;BME280;58763;47.982;11.516;2022-08-19T08:39:28;93779.75;;;19.14;77.63
71107;BME280;58763;47.982;11.516;2022-08-19T08:42:05;93782.34;;;19.23;77.16
71107;BME280;58763;47.982;11.516;2022-08-19T08:44:45;93780.44;;;19.11;77.18
71107;BME280;58763;47.982;11.516;2022-08-19T08:47:17;93792.78;;;19.17;77.25
71107;BME280;58763;47.982;11.516;2022-08-19T08:49:54;93785.28;;;19.30;76.85
71107;BME280;58763;47.982;11.516;2022-08-19T08:52:24;93775.34;;;19.38;76.46
71107;BME280;58763;47.982;11.516;2022-08-19T08:54:53;93780.38;;;19.36;76.69
71107;BME280;58763;47.982;11.516;2022-08-19T08:57:27;93782.06;;;19.40;75.52
71107;BME280;58763;47.982;11.516;2022-08-19T08:59:54;93789.34;;;19.48;75.57
71107;BME280;58763;47.982;11.516;2022-08-19T09:02:22;93791.00;;;19.37;76.63
71107;BME280;58763;47.982;11.516;2022-08-19T09:04:48;93802.06;;;19.41;76.53
71107;BME280;58763;47.982;11.516;2022-08-19T09:07:44;93794.66;;;19.41;77.18
71107;BME280;58763;47.982;11.516;2022-08-19T09:10:22;93793.47;;;19.42;76.48
71107;BME280;58763;47.982;11.516;2022-08-19T09:13:08;93796.41;;;19.49;76.88
71107;BME280;58763;47.982;11.516;2022-08-19T09:15:43;93793.19;;;19.59;76.87
71107;BME280;58763;47.982;11.516;2022-08-19T09:18:10;93802.34;;;19.51;76.99
71107;BME280;58763;47.982;11.516;2022-08-19T09:20:36;93794.69;;;19.57;77.50
71107;BME280;58763;47.982;11.516;2022-08-19T09:23:02;93790.94;;;19.49;77.79
71107;BME280;58763;47.982;11.516;2022-08-19T09:25:27;93797.47;;;19.45;78.32
71107;BME280;58763;47.982;11.516;2022-08-19T09:27:53;93801.25;;;19.40;79.12
71107;BME280;58763;47.982;11.516;2022-08-19T09:30:26;93799.59;;;19.23;79.18
71107;BME280;58763;47.982;11.516;2022-08-19T09:32:53;93793.81;;;19.13;79.63
71107;BME280;58763;47.982;11.516;2022-08-19T09:35:21;93797.16;;;19.06;79.92
71107;BME280;58763;47.982;11.516;2022-08-19T09:37:48;93790.31;;;19.00;80.67
71107;BME280;58763;47.982;11.516;2022-08-19T09:40:14;93786.25;;;19.22;80.56
71107;BME280;58763;47.982;11.516;2022-08-19T09:42:42;93788.63;;;19.23;80.09
71107;BME280;58763;47.982;11.516;2022-08-19T09:45:09;93784.94;;;19.31;81.17
71107;BME280;58763;47.982;11.516;2022-08-19T09:47:35;93788.75;;;19.27;81.01
71107;BME280;58763;47.982;11.516;2022-08-19T09:50:05;93789.59;;;19.15;81.90
71107;BME280;58763;47.982;11.516;2022-08-19T09:52:31;93784.50;;;19.02;81.98
71107;BME280;58763;47.982;11.516;2022-08-19T09:54:57;93784.13;;;19.03;82.27
71107;BME280;58763;47.982;11.516;2022-08-19T09:57:22;93790.50;;;19.07;83.42
71107;BME280;58763;47.982;11.516;2022-08-19T09:59:47;93807.63;;;19.04;82.06
71107;BME280;58763;47.982;11.516;2022-08-19T10:02:13;93813.00;;;19.13;82.64
71107;BME280;58763;47.982;11.516;2022-08-19T10:04:39;93819.28;;;19.13;80.86
71107;BME280;58763;47.982;11.516;2022-08-19T10:07:23;93816.16;;;19.27;79.97
71107;BME280;58763;47.982;11.516;2022-08-19T10:09:48;93819.56;;;19.24;80.61
71107;BME280;58763;47.982;11.516;2022-08-19T10:12:13;93820.69;;;19.35;79.92
71107;BME280;58763;47.982;11.516;2022-08-19T10:14:40;93818.56;;;19.16;79.33
71107;BME280;58763;47.982;11.516;2022-08-19T10:17:06;93818.44;;;19.25;79.54
71107;BME280;58763;47.982;11.516;2022-08-19T10:19:31;93818.59;;;19.44;79.69
71107;BME280;58763;47.982;11.516;2022-08-19T10:22:05;93811.00;;;19.38;79.58
71107;BME280;58763;47.982;11.516;2022-08-19T10:24:33;93809.31;;;19.49;79.17
71107;BME280;58763;47.982;11.516;2022-08-19T10:27:00;93809.44;;;19.52;79.54
71107;BME280;58763;47.982;11.516;2022-08-19T10:29:29;93797.97;;;19.62;79.40
71107;BME280;58763;47.982;11.516;2022-08-19T10:31:56;93795.97;;;19.47;80.03
71107;BME280;58763;47.982;11.516;2022-08-19T10:34:23;93795.75;;;19.68;80.89
71107;BME280;58763;47.982;11.516;2022-08-19T10:36:49;93790.81;;;19.58;80.03
71107;BME280;58763;47.982;11.516;2022-08-19T10:39:15;93784.69;;;19.64;80.66
71107;BME280;58763;47.982;11.516;2022-08-19T10:41:40;93790.38;;;19.87;80.17
71107;BME280;58763;47.982;11.516;2022-08-19T10:44:10;93789.69;;;19.90;78.34
71107;BME280;58763;47.982;11.516;2022-08-19T10:46:38;93786.66;;;19.79;78.17
71107;BME280;58763;47.982;11.516;2022-08-19T10:49:05;93780.66;;;20.05;77.74
71107;BME280;58763;47.982;11.516;2022-08-19T10:51:31;93776.78;;;20.22;77.41
71107;BME280;58763;47.982;11.516;2022-08-19T10:54:15;93775.81;;;20.30;75.56
71107;BME280;58763;47.982;11.516;2022-08-19T10:56:41;93777.94;;;20.21;75.89
71107;BME280;58763;47.982;11.516;2022-08-19T10:59:23;93787.66;;;20.18;76.14
71107;BME280;58763;47.982;11.516;2022-08-19T11:01:50;93781.56;;;20.09;75.81
71107;BME280;58763;47.982;11.516;2022-08-19T11:04:17;93775.44;;;20.31;75.35
71107;BME280;58763;47.982;11.516;2022-08-19T11:06:44;93774.91;;;20.41;75.44
71107;BME280;58763;47.982;11.516;2022-08-19T11:09:14;93772.41;;;20.67;74.45
71107;BME280;58763;47.982;11.516;2022-08-19T11:11:40;93772.75;;;20.66;73.12
71107;BME280;58763;47.982;11.516;2022-08-19T11:14:16;93770.16;;;20.73;72.67
71107;BME280;58763;47.982;11.516;2022-08-19T11:16:43;93773.31;;;20.40;73.48
71107;BME280;58763;47.982;11.516;2022-08-19T11:19:10;93772.69;;;20.47;73.58
71107;BME280;58763;47.982;11.516;2022-08-19T11:21:40;93777.91;;;20.52;73.48
71107;BME280;58763;47.982;11.516;2022-08-19T11:24:11;93767.44;;;20.57;73.69
71107;BME280;58763;47.982;11.516;2022-08-19T11:26:38;93763.69;;;20.65;73.39
71107;BME280;58763;47.982;11.516;2022-08-19T11:29:05;93768.88;;;20.86;72.69
71107;BME280;58763;47.982;11.516;2022-08-19T11:31:34;93774.69;;;21.00;72.66
71107;BME280;58763;47.982;11.516;2022-08-19T11:34:03;93765.53;;;20.77;72.15
71107;BME280;58763;47.982;11.516;2022-08-19T11:36:29;93770.63;;;20.94;72.93
71107;BME280;58763;47.982;11.516;2022-08-19T11:38:56;93776.44;;;21.08;71.74
71107;BME280;58763;47.982;11.516;2022-08-19T11:41:23;93770.09;;;21.04;71.64
71107;BME280;58763;47.982;11.516;2022-08-19T11:43:49;93770.81;;;21.20;69.87
71107;BME280;58763;47.982;11.516;2022-08-19T11:46:18;93768.28;;;21.31;70.50
71107;BME280;58763;47.982;11.516;2022-08-19T11:48:44;93772.75;;;21.20;70.31
71107;BME280;58763;47.982;11.516;2022-08-19T11:51:13;93780.06;;;21.12;70.18
71107;BME280;58763;47.982;11.516;2022-08-19T11:53:40;93775.94;;;21.22;70.19
71107;BME280;58763;47.982;11.516;2022-08-19T11:56:07;93771.03;;;21.12;70.22
71107;BME280;58763;47.982;11.516;2022-08-19T11:58:33;93773.56;;;21.20;69.87
71107;BME280;58763;47.982;11.516;2022-08-19T12:00:59;93773.69;;;21.08;70.50
71107;BME280;58763;47.982;11.516;2022-08-19T12:03:25;93770.25;;;21.11;70.65
71107;BME280;58763;47.982;11.516;2022-08-19T12:05:51;93765.75;;;21.22;70.59
71107;BME280;58763;47.982;11.516;2022-08-19T12:08:16;93772.84;;;21.23;71.09
71107;BME280;58763;47.982;11.516;2022-08-19T12:10:43;93779.56;;;21.07;69.62
71107;BME280;58763;47.982;11.516;2022-08-19T12:13:10;93786.91;;;21.03;69.34
71107;BME280;58763;47.982;11.516;2022-08-19T12:15:39;93790.72;;;20.79;70.83
71107;BME280;58763;47.982;11.516;2022-08-19T12:18:08;93795.56;;;20.35;72.06
71107;BME280;58763;47.982;11.516;2022-08-19T12:20:38;93804.47;;;20.01;73.54
71107;BME280;58763;47.982;11.516;2022-08-19T12:23:06;93800.16;;;20.16;73.15
71107;BME280;58763;47.982;11.516;2022-08-19T12:25:33;93804.56;;;20.20;73.52
71107;BME280;58763;47.982;11.516;2022-08-19T12:28:00;93814.84;;;20.08;74.24
71107;BME280;58763;47.982;11.516;2022-08-19T12:30:25;93812.28;;;20.15;74.27
71107;BME280;58763;47.982;11.516;2022-08-19T12:32:51;93814.75;;;20.20;74.15
71107;BME280;58763;47.982;11.516;2022-08-19T12:35:17;93815.84;;;20.31;73.74
71107;BME280;58763;47.982;11.516;2022-08-19T12:37:46;93805.94;;;20.42;73.51
71107;BME280;58763;47.982;11.516;2022-08-19T12:40:12;93811.06;;;20.43;72.99
71107;BME280;58763;47.982;11.516;2022-08-19T12:42:38;93809.78;;;20.56;72.93
71107;BME280;58763;47.982;11.516;2022-08-19T12:45:12;93808.72;;;20.61;71.82
71107;BME280;58763;47.982;11.516;2022-08-19T12:47:39;93815.38;;;20.60;72.06
71107;BME280;58763;47.982;11.516;2022-08-19T12:50:06;93800.81;;;20.75;71.82
71107;BME280;58763;47.982;11.516;2022-08-19T12:52:35;93806.56;;;20.70;71.65
71107;BME280;58763;47.982;11.516;2022-08-19T12:55:04;93810.22;;;20.74;72.51
71107;BME280;58763;47.982;11.516;2022-08-19T12:57:30;93801.75;;;20.48;71.80